createdAt,value
2023-05-14T00:00:12.325Z,27.53
2023-05-14T00:02:17.647Z,27.57
2023-05-14T00:04:23.015Z,27.5
2023-05-14T00:06:28.236Z,27.59
2023-05-14T00:08:33.437Z,27.58
2023-05-14T00:10:38.716Z,27.62
2023-05-14T00:12:43.978Z,27.65
2023-05-14T00:14:49.107Z,27.72
2023-05-14T00:16:54.172Z,27.75
2023-05-14T00:18:59.509Z,27.75
2023-05-14T00:21:04.595Z,27.8
2023-05-14T00:23:09.674Z,27.77
2023-05-14T00:25:14.768Z,27.78
2023-05-14T00:27:20.066Z,27.79
2023-05-14T00:29:25.115Z,27.83
2023-05-14T00:31:30.308Z,27.78
2023-05-14T00:33:35.473Z,27.83
2023-05-14T00:35:40.629Z,27.85
2023-05-14T00:37:45.747Z,27.8
2023-05-14T00:39:50.907Z,27.88
2023-05-14T00:41:56.187Z,27.88
2023-05-14T00:44:01.389Z,27.9
2023-05-14T00:46:06.483Z,27.98
2023-05-14T00:48:11.601Z,27.98
2023-05-14T00:50:16.863Z,27.97
2023-05-14T00:52:21.936Z,27.97
2023-05-14T00:54:26.996Z,27.98
2023-05-14T00:56:32.122Z,27.99
2023-05-14T00:58:37.434Z,28.05
2023-05-14T01:00:42.649Z,28.03
2023-05-14T01:02:48.135Z,28.01
2023-05-14T01:04:53.482Z,28
2023-05-14T01:06:58.593Z,28.05
2023-05-14T01:09:03.720Z,28.01
2023-05-14T01:11:08.916Z,28.08
2023-05-14T01:13:14.003Z,28.12
2023-05-14T01:15:19.107Z,28.11
2023-05-14T01:17:24.299Z,28.07
2023-05-14T01:19:29.385Z,28.07
2023-05-14T01:21:34.499Z,27.52
2023-05-14T01:23:39.589Z,27.93
2023-05-14T01:25:44.676Z,27.87
2023-05-14T01:27:49.791Z,28.09
2023-05-14T01:29:54.890Z,28.2
2023-05-14T01:32:00.220Z,28.05
2023-05-14T01:34:05.421Z,28.06
2023-05-14T01:36:10.516Z,28.05
2023-05-14T01:38:15.551Z,28.06
2023-05-14T01:40:20.686Z,27.99
2023-05-14T01:42:25.799Z,28.08
2023-05-14T01:44:30.954Z,27.92
2023-05-14T01:46:36.389Z,27.99
2023-05-14T01:48:41.656Z,27.81
2023-05-14T01:50:47.046Z,27.56
2023-05-14T01:52:52.102Z,27.81
2023-05-14T01:54:57.306Z,27.91
2023-05-14T01:57:02.504Z,27.83
2023-05-14T01:59:07.774Z,27.79
2023-05-14T02:01:13.560Z,27.8
2023-05-14T02:03:18.702Z,27.77
2023-05-14T02:05:23.822Z,27.71
2023-05-14T02:07:28.880Z,27.63
2023-05-14T02:09:33.965Z,27.53
2023-05-14T02:11:39.104Z,27.66
2023-05-14T02:13:44.219Z,27.72
2023-05-14T02:15:49.377Z,27.78
2023-05-14T02:17:54.637Z,27.71
2023-05-14T02:19:59.729Z,27.81
2023-05-14T02:22:04.819Z,27.72
2023-05-14T02:24:10.375Z,27.82
2023-05-14T02:26:15.496Z,27.74
2023-05-14T02:28:20.554Z,27.76
2023-05-14T02:30:26.231Z,27.72
2023-05-14T02:32:31.782Z,27.78
2023-05-14T02:34:36.924Z,27.74
2023-05-14T02:36:41.986Z,27.71
2023-05-14T02:38:47.085Z,27.83
2023-05-14T02:40:52.178Z,27.77
2023-05-14T02:42:57.228Z,27.78
2023-05-14T02:45:02.325Z,27.78
2023-05-14T02:47:07.588Z,27.83
2023-05-14T02:49:12.744Z,27.86
2023-05-14T02:51:17.878Z,27.91
2023-05-14T02:53:22.916Z,27.89
2023-05-14T02:55:28.002Z,28.03
2023-05-14T02:57:33.143Z,28.1
2023-05-14T02:59:39.130Z,28.08
2023-05-14T03:01:45.719Z,28.14
2023-05-14T03:03:52.238Z,28.13
2023-05-14T03:05:57.644Z,28.19
2023-05-14T03:08:02.789Z,28.15
2023-05-14T03:10:07.876Z,28.13
2023-05-14T03:13:09.708Z,28.13
2023-05-14T03:15:14.859Z,28.08
2023-05-14T03:17:19.943Z,28.4
2023-05-14T03:19:25.075Z,27.49
2023-05-14T03:21:30.193Z,28.07
2023-05-14T03:23:35.373Z,28.13
2023-05-14T03:25:40.590Z,28.13
2023-05-14T03:27:45.724Z,28.06
2023-05-14T03:29:50.794Z,28.06
2023-05-14T03:31:55.886Z,28.07
2023-05-14T03:34:00.920Z,28.07
2023-05-14T03:36:06.101Z,28.15
2023-05-14T03:38:11.274Z,28.15
2023-05-14T03:40:16.347Z,28.06
2023-05-14T03:42:21.548Z,28.21
2023-05-14T03:44:26.664Z,28.21
2023-05-14T03:46:31.844Z,28.21
2023-05-14T03:48:36.996Z,28.21
2023-05-14T03:50:42.142Z,28.24
2023-05-14T03:52:47.204Z,28.26
2023-05-14T03:54:52.276Z,28.33
2023-05-14T03:56:57.479Z,28.26
2023-05-14T03:59:02.616Z,28.29
2023-05-14T04:01:07.666Z,28.29
2023-05-14T04:03:13.055Z,28.28
2023-05-14T04:05:18.910Z,28.31
2023-05-14T04:07:24.037Z,28.29
2023-05-14T04:09:29.102Z,28.37
2023-05-14T04:11:34.166Z,28.4
2023-05-14T04:13:39.378Z,28.42
2023-05-14T04:15:44.577Z,28.45
2023-05-14T04:17:50.221Z,28.44
2023-05-14T04:19:55.334Z,28.48
2023-05-14T04:22:00.569Z,28.47
2023-05-14T04:24:05.642Z,28.45
2023-05-14T04:26:10.722Z,28.5
2023-05-14T04:28:15.991Z,28.54
2023-05-14T04:30:21.442Z,28.66
2023-05-14T04:32:27.169Z,28.71
2023-05-14T04:34:32.270Z,28.54
2023-05-14T04:36:37.439Z,28.58
2023-05-14T04:38:42.489Z,28.54
2023-05-14T04:40:47.565Z,28.54
2023-05-14T04:42:52.753Z,28.59
2023-05-14T04:44:57.823Z,28.57
2023-05-14T04:47:02.863Z,28.62
2023-05-14T04:49:08.066Z,28.59
2023-05-14T04:51:13.299Z,28.56
2023-05-14T04:53:18.352Z,28.65
2023-05-14T04:55:23.548Z,28.63
2023-05-14T04:57:28.697Z,28.68
2023-05-14T04:59:33.940Z,28.67
2023-05-14T05:01:39.292Z,28.74
2023-05-14T05:03:44.857Z,28.71
2023-05-14T05:05:49.969Z,28.7
2023-05-14T05:07:55.163Z,28.31
2023-05-14T05:10:00.332Z,28.72
2023-05-14T05:12:05.431Z,28.65
2023-05-14T05:14:10.532Z,28.77
2023-05-14T05:16:15.874Z,28.25
2023-05-14T05:18:21.140Z,28.64
2023-05-14T05:20:26.901Z,28.48
2023-05-14T05:22:32.040Z,28.61
2023-05-14T05:24:37.200Z,28.66
2023-05-14T05:26:42.346Z,28.73
2023-05-14T05:28:47.532Z,28.59
2023-05-14T05:30:52.707Z,28.54
2023-05-14T05:32:58.286Z,28.57
2023-05-14T05:35:03.462Z,28.54
2023-05-14T05:37:08.670Z,28.47
2023-05-14T05:39:13.891Z,28.29
2023-05-14T05:41:18.951Z,28.56
2023-05-14T05:43:23.997Z,28.52
2023-05-14T05:45:29.211Z,28.52
2023-05-14T05:47:34.332Z,28.62
2023-05-14T05:49:39.672Z,28.62
2023-05-14T05:51:44.736Z,28.65
2023-05-14T05:53:49.988Z,28.4
2023-05-14T05:55:55.215Z,28.46
2023-05-14T05:58:00.312Z,28.56
2023-05-14T06:00:05.403Z,28.27
2023-05-14T06:02:10.732Z,28.36
2023-05-14T06:04:16.131Z,28.28
2023-05-14T06:06:21.193Z,28.39
2023-05-14T06:08:26.247Z,28.23
2023-05-14T06:10:31.596Z,28.23
2023-05-14T06:12:36.744Z,28.28
2023-05-14T06:14:41.962Z,28.5
2023-05-14T06:16:47.211Z,28.42
2023-05-14T06:18:52.501Z,28.31
2023-05-14T06:20:57.812Z,28.29
2023-05-14T06:23:02.882Z,28.45
2023-05-14T06:25:08.030Z,28.33
2023-05-14T06:27:13.251Z,28.52
2023-05-14T06:29:18.541Z,28.35
2023-05-14T06:31:23.817Z,28.4
2023-05-14T06:33:28.956Z,28.41
2023-05-14T06:35:34.148Z,28.44
2023-05-14T06:37:39.174Z,28.54
2023-05-14T06:39:44.253Z,28.57
2023-05-14T06:41:49.317Z,28.57
2023-05-14T06:43:54.376Z,28.65
2023-05-14T06:45:59.542Z,28.65
2023-05-14T06:48:05.073Z,28.63
2023-05-14T06:50:13.109Z,28.74
2023-05-14T06:52:18.203Z,28.64
2023-05-14T06:54:23.287Z,28.79
2023-05-14T06:56:28.606Z,28.67
2023-05-14T06:58:33.618Z,28.77
2023-05-14T07:00:38.921Z,28.85
2023-05-14T07:02:44.186Z,28.91
2023-05-14T07:04:49.902Z,29.04
2023-05-14T07:06:55.017Z,28.93
2023-05-14T07:09:00.092Z,29.08
2023-05-14T07:11:05.181Z,29
2023-05-14T07:13:10.403Z,29.02
2023-05-14T07:15:15.461Z,29.04
2023-05-14T07:17:20.901Z,29.01
2023-05-14T07:19:25.997Z,28.96
2023-05-14T07:21:31.029Z,29
2023-05-14T07:23:36.290Z,28.97
2023-05-14T07:25:41.371Z,29.14
2023-05-14T07:27:46.465Z,29.06
2023-05-14T07:29:51.625Z,29.07
2023-05-14T07:31:56.728Z,29.15
2023-05-14T07:34:01.959Z,29.05
2023-05-14T07:36:07.039Z,29.13
2023-05-14T07:38:12.110Z,29.27
2023-05-14T07:40:17.268Z,29.2
2023-05-14T07:42:38.785Z,29.08
2023-05-14T07:44:44.041Z,29.12
2023-05-14T07:46:49.223Z,29.34
2023-05-14T07:48:54.262Z,29
2023-05-14T07:50:59.475Z,29.18
2023-05-14T07:53:04.632Z,29.28
2023-05-14T07:55:09.930Z,29.41
2023-05-14T07:57:15.008Z,29.41
2023-05-14T07:59:20.074Z,29.2
2023-05-14T08:01:25.262Z,29.64
2023-05-14T08:03:30.635Z,29.16
2023-05-14T08:05:35.785Z,28.3
2023-05-14T08:07:40.906Z,28.35
2023-05-14T08:09:46.228Z,28
2023-05-14T08:11:51.483Z,28.31
2023-05-14T08:13:56.686Z,28.51
2023-05-14T08:16:01.829Z,28.45
2023-05-14T08:18:07.304Z,28.23
2023-05-14T08:20:12.508Z,27.96
2023-05-14T08:22:17.645Z,28.22
2023-05-14T08:24:22.757Z,28.5
2023-05-14T08:26:27.837Z,28.25
2023-05-14T08:28:32.906Z,28.2
2023-05-14T08:30:38.277Z,28.07
2023-05-14T08:32:43.562Z,27.83
2023-05-14T08:34:48.689Z,27.8
2023-05-14T08:36:53.774Z,28.02
2023-05-14T08:38:58.910Z,28.16
2023-05-14T08:41:03.956Z,27.98
2023-05-14T08:43:09.132Z,28.04
2023-05-14T08:45:14.517Z,28.11
2023-05-14T08:47:19.566Z,27.64
2023-05-14T08:49:24.681Z,27.69
2023-05-14T08:51:29.755Z,27.53
2023-05-14T08:53:34.820Z,27.49
2023-05-14T08:55:39.906Z,27.64
2023-05-14T08:57:45.114Z,27.5
2023-05-14T08:59:50.228Z,27.55
2023-05-14T09:01:55.493Z,27.55
2023-05-14T09:04:00.764Z,27.4
2023-05-14T09:06:05.946Z,27.36
2023-05-14T09:08:11.027Z,27.28
2023-05-14T09:10:16.171Z,27.15
2023-05-14T09:12:21.341Z,26.91
2023-05-14T09:14:26.435Z,27.03
2023-05-14T09:16:31.705Z,26.81
2023-05-14T09:18:37.046Z,26.81
2023-05-14T09:20:42.174Z,27.43
2023-05-14T09:22:47.400Z,27.18
2023-05-14T09:24:52.532Z,27.02
2023-05-14T09:26:57.679Z,26.94
2023-05-14T09:29:02.798Z,26.91
2023-05-14T09:31:08.057Z,27
2023-05-14T09:33:13.251Z,27.32
2023-05-14T09:35:18.909Z,27.11
2023-05-14T09:37:23.998Z,27.22
2023-05-14T09:39:29.197Z,27.07
2023-05-14T09:41:34.432Z,27.24
2023-05-14T09:43:39.507Z,27.89
2023-05-14T09:45:44.660Z,27.82
2023-05-14T09:47:50.369Z,27.52
2023-05-14T09:49:55.514Z,27.24
2023-05-14T09:52:00.655Z,27.02
2023-05-14T09:54:05.844Z,26.95
2023-05-14T09:56:11.016Z,26.64
2023-05-14T09:58:16.135Z,26.66
2023-05-14T10:00:21.555Z,26.49
2023-05-14T10:02:26.934Z,26.26
2023-05-14T10:04:32.329Z,26.34
2023-05-14T10:06:37.408Z,26.49
2023-05-14T10:08:42.477Z,26.57
2023-05-14T10:10:47.702Z,26.54
2023-05-14T10:12:52.873Z,26.61
2023-05-14T10:14:57.982Z,26.76
2023-05-14T10:17:03.378Z,26.8
2023-05-14T10:19:08.793Z,26.52
2023-05-14T10:21:13.978Z,26.82
2023-05-14T10:23:19.114Z,27.49
2023-05-14T10:25:24.252Z,27.59
2023-05-14T10:27:29.393Z,27.63
2023-05-14T10:29:34.448Z,27.16
2023-05-14T10:31:39.899Z,27.06
2023-05-14T10:33:45.050Z,27.1
2023-05-14T10:35:50.109Z,27.13
2023-05-14T10:37:55.213Z,26.58
2023-05-14T10:40:00.387Z,26.99
2023-05-14T10:42:05.505Z,27.26
2023-05-14T10:44:10.671Z,27.26
2023-05-14T10:46:15.978Z,26.46
2023-05-14T10:48:21.393Z,26.03
2023-05-14T10:50:27.234Z,26.31
2023-05-14T10:52:32.506Z,26.02
2023-05-14T10:54:37.561Z,26.04
2023-05-14T10:56:42.639Z,26.13
2023-05-14T10:58:47.706Z,26.17
2023-05-14T11:00:52.856Z,26.17
2023-05-14T11:02:58.180Z,26.21
2023-05-14T11:05:03.289Z,26.4
2023-05-14T11:07:08.430Z,26.35
2023-05-14T11:09:13.537Z,26.15
2023-05-14T11:11:18.754Z,26.25
2023-05-14T11:13:23.826Z,26.07
2023-05-14T11:15:28.941Z,26.19
2023-05-14T11:17:34.263Z,26.25
2023-05-14T11:19:39.483Z,26.45
2023-05-14T11:21:44.686Z,26.78
2023-05-14T11:23:49.796Z,27.13
2023-05-14T11:25:55.083Z,27.38
2023-05-14T11:28:00.200Z,26.86
2023-05-14T11:30:05.371Z,27.08
2023-05-14T11:32:10.981Z,27.64
2023-05-14T11:34:16.087Z,27.23
2023-05-14T11:36:21.123Z,27.47
2023-05-14T11:38:26.122Z,27.29
2023-05-14T11:40:31.082Z,27.17
2023-05-14T11:42:36.108Z,27.47
2023-05-14T11:44:41.105Z,27.57
2023-05-14T11:46:46.140Z,26.71
2023-05-14T11:48:51.331Z,25.98
2023-05-14T11:50:56.425Z,25.52
2023-05-14T11:53:01.483Z,25.79
2023-05-14T11:55:06.564Z,26.38
2023-05-14T11:57:11.671Z,26.61
2023-05-14T11:59:16.754Z,26.47
2023-05-14T12:01:21.917Z,25.38
2023-05-14T12:03:27.950Z,26.14
2023-05-14T12:05:33.114Z,26.28
2023-05-14T12:07:38.189Z,25.54
2023-05-14T12:09:46.780Z,25.35
2023-05-14T12:11:52.001Z,25.73
2023-05-14T12:13:57.223Z,26.29
2023-05-14T12:16:02.633Z,26.36
2023-05-14T12:18:27.443Z,26.55
2023-05-14T12:20:32.646Z,26.37
2023-05-14T12:22:39.546Z,26.19
2023-05-14T12:24:44.626Z,25.87
2023-05-14T12:26:49.793Z,25.2
2023-05-14T12:28:55.041Z,24.54
2023-05-14T12:31:00.373Z,24.97
2023-05-14T12:33:05.660Z,25.84
2023-05-14T12:35:10.834Z,26.36
2023-05-14T12:37:15.977Z,26.92
2023-05-14T12:39:21.078Z,26.44
2023-05-14T12:41:26.134Z,25.45
2023-05-14T12:43:31.295Z,26.5
2023-05-14T12:45:36.380Z,26.82
2023-05-14T12:47:41.715Z,27.05
2023-05-14T12:49:46.847Z,26.87
2023-05-14T12:52:22.604Z,26.57
2023-05-14T12:54:30.882Z,27.1
2023-05-14T12:56:35.964Z,26.65
2023-05-14T12:58:41.086Z,26.42
2023-05-14T13:00:46.289Z,26.72
2023-05-14T13:02:51.572Z,26.55
2023-05-14T13:04:56.747Z,26.08
2023-05-14T13:07:01.851Z,26.33
2023-05-14T13:09:07.089Z,25.79
2023-05-14T13:11:12.153Z,24.94
2023-05-14T13:13:17.318Z,24.15
2023-05-14T13:15:22.735Z,25.05
2023-05-14T13:17:28.211Z,25.18
2023-05-14T13:19:33.506Z,24.38
2023-05-14T13:21:38.585Z,23.89
2023-05-14T13:23:43.711Z,24.71
2023-05-14T13:25:52.143Z,24.93
2023-05-14T13:27:57.237Z,23.66
2023-05-14T13:30:02.344Z,23.54
2023-05-14T13:32:07.572Z,23.37
2023-05-14T13:34:12.636Z,23.4
2023-05-14T13:36:17.718Z,24.07
2023-05-14T13:38:22.805Z,23.42
2023-05-14T13:40:27.915Z,22.91
2023-05-14T13:42:33.071Z,23.43
2023-05-14T13:44:38.249Z,22.79
2023-05-14T13:46:43.497Z,22.68
2023-05-14T13:48:48.591Z,23.71
2023-05-14T13:50:53.666Z,23.92
2023-05-14T13:52:58.880Z,23.83
2023-05-14T13:55:04.189Z,23.65
2023-05-14T13:57:09.248Z,23.98
2023-05-14T13:59:14.274Z,23.92
2023-05-14T14:01:19.437Z,23.96
2023-05-14T14:03:24.510Z,24.11
2023-05-14T14:05:29.978Z,24.41
2023-05-14T14:07:35.150Z,24.37
2023-05-14T14:09:40.301Z,24.52
2023-05-14T14:11:45.626Z,24.99
2023-05-14T14:13:50.760Z,25.91
2023-05-14T14:15:56.127Z,25.77
2023-05-14T14:18:01.407Z,25.99
2023-05-14T14:20:06.902Z,25.69
2023-05-14T14:22:11.997Z,26.07
2023-05-14T14:24:17.107Z,25.88
2023-05-14T14:26:22.867Z,26.33
2023-05-14T14:28:27.993Z,26.01
2023-05-14T14:30:33.114Z,26.27
2023-05-14T14:32:38.412Z,26.2
2023-05-14T14:34:43.600Z,26.37
2023-05-14T14:36:48.824Z,26.49
2023-05-14T14:38:53.882Z,26.6
2023-05-14T14:40:59.026Z,26.94
2023-05-14T14:43:04.175Z,26.86
2023-05-14T14:45:09.318Z,27.19
2023-05-14T14:47:14.446Z,27.23
2023-05-14T14:49:19.539Z,27.28
2023-05-14T14:51:24.612Z,27.4
2023-05-14T14:53:29.749Z,27.46
2023-05-14T14:55:34.858Z,27.61
2023-05-14T14:57:39.941Z,27.67
2023-05-14T14:59:45.074Z,27.7
2023-05-14T15:01:50.492Z,27.76
2023-05-14T15:03:55.836Z,27.7
2023-05-14T15:06:00.924Z,27.59
2023-05-14T15:08:06.194Z,27.61
2023-05-14T15:10:11.319Z,27.62
2023-05-14T15:12:16.382Z,27.35
2023-05-14T15:14:21.474Z,27.51
2023-05-14T15:16:26.720Z,27.25
2023-05-14T15:18:31.977Z,26.95
2023-05-14T15:20:37.221Z,27.07
2023-05-14T15:22:42.281Z,27.08
2023-05-14T15:24:47.342Z,27.17
2023-05-14T15:26:55.309Z,27.56
2023-05-14T15:29:00.416Z,27.69
2023-05-14T15:31:05.717Z,27.53
2023-05-14T15:33:11.169Z,27.33
2023-05-14T15:35:16.349Z,27.07
2023-05-14T15:37:21.504Z,27.12
2023-05-14T15:39:27.613Z,27.21
2023-05-14T15:41:33.611Z,27.14
2023-05-14T15:43:38.754Z,27
2023-05-14T15:45:43.962Z,27.23
2023-05-14T15:47:49.217Z,27.29
2023-05-14T15:49:54.277Z,27.45
2023-05-14T15:51:59.400Z,27.53
2023-05-14T15:54:04.496Z,27.36
2023-05-14T15:56:09.574Z,27.37
2023-05-14T15:58:14.715Z,27.5
2023-05-14T16:00:19.853Z,27.61
2023-05-14T16:02:24.964Z,27.4
2023-05-14T16:04:30.116Z,27.47
2023-05-14T16:06:35.309Z,27.83
2023-05-14T16:08:40.447Z,27.45
2023-05-14T16:10:45.703Z,27.25
2023-05-14T16:12:50.927Z,27.1
2023-05-14T16:14:56.051Z,26.97
2023-05-14T16:17:01.193Z,26.99
2023-05-14T16:19:06.676Z,27.11
2023-05-14T16:21:11.967Z,27.18
2023-05-14T16:23:17.160Z,27.24
2023-05-14T16:25:22.256Z,27.61
2023-05-14T16:27:27.359Z,27.42
2023-05-14T16:29:32.473Z,27.35
2023-05-14T16:31:37.772Z,27.41
2023-05-14T16:33:43.301Z,27.64
2023-05-14T16:35:48.416Z,27.7
2023-05-14T16:37:53.521Z,27.68
2023-05-14T16:39:58.783Z,27.76
2023-05-14T16:42:03.956Z,27.76
2023-05-14T16:44:09.084Z,27.72
2023-05-14T16:46:14.410Z,27.87
2023-05-14T16:48:19.623Z,27.81
2023-05-14T16:50:25.078Z,28.35
2023-05-14T16:52:30.165Z,28.04
2023-05-14T16:54:35.249Z,27.94
2023-05-14T16:56:40.416Z,28.2
2023-05-14T16:58:45.511Z,28.16
2023-05-14T17:00:50.587Z,28.69
2023-05-14T17:02:55.874Z,28.08
2023-05-14T17:05:01.782Z,28.1
2023-05-14T17:07:06.922Z,28.03
2023-05-14T17:09:12.255Z,28
2023-05-14T17:11:17.479Z,28.05
2023-05-14T17:13:22.662Z,28.1
2023-05-14T17:15:27.990Z,28.3
2023-05-14T17:17:33.307Z,28.81
2023-05-14T17:19:38.559Z,28.53
2023-05-14T17:21:43.643Z,28.5
2023-05-14T17:23:49.149Z,28.5
2023-05-14T17:25:54.357Z,28.49
2023-05-14T17:27:59.489Z,28.77
2023-05-14T17:30:04.719Z,28.57
2023-05-14T17:32:10.071Z,28.85
2023-05-14T17:34:15.147Z,28.72
2023-05-14T17:36:20.314Z,28.57
2023-05-14T17:38:25.429Z,28.59
2023-05-14T17:40:30.663Z,28.63
2023-05-14T17:42:35.833Z,28.79
2023-05-14T17:44:40.926Z,28.5
2023-05-14T17:46:46.421Z,28.39
2023-05-14T17:48:51.559Z,28.34
2023-05-14T17:50:56.713Z,28.38
2023-05-14T17:53:01.849Z,28.48
2023-05-14T17:55:06.964Z,28.59
2023-05-14T17:57:12.079Z,28.59
2023-05-14T17:59:17.246Z,28.64
2023-05-14T18:01:22.714Z,28.95
2023-05-14T18:03:28.280Z,28.91
2023-05-14T18:05:33.665Z,28.81
2023-05-14T18:07:38.834Z,28.77
2023-05-14T18:09:44.011Z,28.8
2023-05-14T18:11:49.108Z,28.9
2023-05-14T18:13:54.206Z,29.04
2023-05-14T18:15:59.410Z,29.24
2023-05-14T18:18:04.714Z,29.15
2023-05-14T18:20:09.887Z,29.09
2023-05-14T18:22:15.032Z,28.98
2023-05-14T18:24:20.175Z,28.91
2023-05-14T18:26:25.281Z,28.94
2023-05-14T18:28:30.406Z,29.12
2023-05-14T18:30:35.981Z,29.5
2023-05-14T18:32:41.191Z,29.75
2023-05-14T18:34:46.350Z,29.76
2023-05-14T18:36:51.517Z,29.74
2023-05-14T18:38:56.784Z,29.87
2023-05-14T18:41:01.956Z,29.64
2023-05-14T18:43:07.377Z,29.99
2023-05-14T18:45:12.596Z,29.7
2023-05-14T18:47:17.779Z,30.05
2023-05-14T18:49:22.917Z,29.86
2023-05-14T18:51:28.084Z,30.06
2023-05-14T18:53:33.165Z,30.8
2023-05-14T18:55:38.387Z,31.26
2023-05-14T18:57:43.582Z,31.64
2023-05-14T18:59:48.649Z,31.65
2023-05-14T19:01:54.128Z,31.9
2023-05-14T19:03:59.759Z,32.14
2023-05-14T19:06:05.306Z,32.35
2023-05-14T19:08:10.393Z,32.66
2023-05-14T19:10:15.458Z,32.72
2023-05-14T19:12:20.748Z,32.73
2023-05-14T19:14:25.829Z,33.08
2023-05-14T19:16:31.269Z,33.61
2023-05-14T19:18:36.546Z,34.16
2023-05-14T19:20:41.706Z,34.27
2023-05-14T19:22:46.985Z,34.65
2023-05-14T19:24:52.294Z,35.02
2023-05-14T19:26:57.365Z,35.35
2023-05-14T19:29:02.527Z,35.45
2023-05-14T19:31:07.757Z,35.4
2023-05-14T19:33:13.078Z,35.95
2023-05-14T19:35:18.166Z,36.55
2023-05-14T19:37:23.258Z,36.55
2023-05-14T19:39:28.365Z,36.66
2023-05-14T19:41:33.557Z,36.36
2023-05-14T19:43:38.645Z,36.35
2023-05-14T19:45:44.124Z,36.38
2023-05-14T19:47:49.416Z,36.77
2023-05-14T19:49:54.542Z,37.36
2023-05-14T19:51:59.726Z,38.09
2023-05-14T19:54:04.880Z,38.25
2023-05-14T19:56:10.052Z,36.76
2023-05-14T19:58:15.226Z,36.41
2023-05-14T20:00:20.411Z,36.25
2023-05-14T20:02:25.692Z,36.25
2023-05-14T20:04:30.814Z,36.01
2023-05-14T20:06:35.917Z,36.22
2023-05-14T20:08:41.051Z,35.99
2023-05-14T20:10:46.260Z,36.48
2023-05-14T20:12:51.362Z,36.54
2023-05-14T20:14:56.385Z,36.79
2023-05-14T20:17:01.596Z,37.7
2023-05-14T20:19:06.927Z,37.38
2023-05-14T20:21:12.010Z,37.37
2023-05-14T20:23:17.101Z,37.73
2023-05-14T20:25:22.124Z,38.04
2023-05-14T20:27:27.175Z,38.69
2023-05-14T20:29:32.315Z,38.9
2023-05-14T20:31:37.564Z,38.86
2023-05-14T20:33:42.693Z,38.85
2023-05-14T20:35:47.726Z,39.13
2023-05-14T20:37:52.836Z,39
2023-05-14T20:39:58.191Z,38.63
2023-05-14T20:42:03.457Z,39.53
2023-05-14T20:44:08.588Z,39.68
2023-05-14T20:46:13.729Z,39.65
2023-05-14T20:48:19.063Z,39.73
2023-05-14T20:50:24.093Z,40
2023-05-14T20:52:29.201Z,40.36
2023-05-14T20:54:34.443Z,40.6
2023-05-14T20:56:39.442Z,39.81
2023-05-14T20:58:44.527Z,39.36
2023-05-14T21:00:49.642Z,39.66
2023-05-14T21:02:55.040Z,40
2023-05-14T21:05:00.753Z,40.37
2023-05-14T21:07:05.830Z,40.65
2023-05-14T21:09:10.918Z,40.75
2023-05-14T21:11:16.139Z,40.12
2023-05-14T21:13:21.264Z,39.74
2023-05-14T21:15:27.027Z,39.64
2023-05-14T21:17:32.444Z,39.38
2023-05-14T21:19:37.522Z,38.93
2023-05-14T21:21:42.598Z,38.76
2023-05-14T21:23:47.661Z,38.86
2023-05-14T21:25:52.649Z,38.96
2023-05-14T21:27:57.665Z,38.38
2023-05-14T21:30:02.868Z,38.08
2023-05-14T21:32:08.413Z,38.24
2023-05-14T21:34:13.530Z,38.33
2023-05-14T21:36:18.862Z,38.68
2023-05-14T21:38:23.876Z,38.55
2023-05-14T21:40:28.961Z,38.77
2023-05-14T21:42:34.274Z,39.6
2023-05-14T21:44:39.377Z,39.88
2023-05-14T21:46:44.476Z,40.04
2023-05-14T21:48:49.827Z,39.83
2023-05-14T21:50:56.202Z,40.39
2023-05-14T21:53:01.446Z,40.23
2023-05-14T21:55:06.425Z,40.54
2023-05-14T21:57:11.549Z,40.42
2023-05-14T21:59:16.589Z,40.34
2023-05-14T22:01:21.814Z,40.15
2023-05-14T22:03:27.267Z,39.98
2023-05-14T22:05:32.381Z,39.8
2023-05-14T22:07:38.137Z,39.87
2023-05-14T22:09:43.236Z,39.79
2023-05-14T22:11:48.369Z,39.8
2023-05-14T22:13:53.679Z,39.73
2023-05-14T22:16:15.550Z,39.74
2023-05-14T22:18:20.632Z,39.74
2023-05-14T22:20:25.790Z,39.76
2023-05-14T22:22:30.994Z,39.74
2023-05-14T22:24:36.119Z,39.74
2023-05-14T22:26:41.244Z,39.79
2023-05-14T22:28:46.397Z,39.82
2023-05-14T22:30:51.405Z,39.84
2023-05-14T22:32:56.608Z,39.83
2023-05-14T22:35:01.662Z,39.89
2023-05-14T22:37:06.667Z,39.79
2023-05-14T22:39:15.020Z,39.85
2023-05-14T22:41:20.188Z,39.78
2023-05-14T22:43:25.328Z,39.79
2023-05-14T22:45:30.486Z,39.75
2023-05-14T22:47:35.885Z,39.69
2023-05-14T22:49:41.079Z,39.69
2023-05-14T22:51:46.343Z,39.81
2023-05-14T22:53:51.401Z,39.82
2023-05-14T22:55:56.459Z,39.79
2023-05-14T22:58:01.446Z,39.75
2023-05-14T23:00:06.594Z,39.89
2023-05-14T23:02:12.079Z,39.9
2023-05-14T23:04:17.339Z,40.01
2023-05-14T23:06:22.516Z,40.05
2023-05-14T23:08:27.672Z,40.16
2023-05-14T23:10:32.749Z,39.99
2023-05-14T23:12:37.927Z,40.1
2023-05-14T23:14:42.971Z,40.09
2023-05-14T23:16:48.148Z,40.09
2023-05-14T23:18:53.750Z,40.15
2023-05-14T23:20:58.915Z,40.11
2023-05-14T23:23:04.173Z,40.06
2023-05-14T23:25:09.316Z,40.18
2023-05-14T23:27:14.453Z,40.2
2023-05-14T23:29:19.450Z,40.18
2023-05-14T23:31:24.712Z,40.33
2023-05-14T23:33:29.811Z,40.38
2023-05-14T23:35:34.833Z,40.35
2023-05-14T23:37:39.869Z,40.44
2023-05-14T23:39:44.851Z,40.44
2023-05-14T23:41:49.912Z,40.42
2023-05-14T23:43:55.063Z,40.48
2023-05-14T23:46:00.234Z,40.42
2023-05-14T23:48:05.598Z,40.47
2023-05-14T23:50:10.990Z,40.46
2023-05-14T23:52:16.044Z,40.58
2023-05-14T23:54:21.124Z,40.55
2023-05-14T23:56:26.191Z,40.73
2023-05-14T23:58:31.317Z,40.79
